Latest Weather Observations for Lockhart River

IDQ60801

Issued at 4:22 pm EST Thursday 28 January 2021 (issued every 10 minutes, with the page automatically refreshed every 10 minutes)

About weather observations | Map of weather stations | Latest weather observations for QLD | Other Formats
Station Details ID: 028008 Name: LOCKHART RIVER AIRPORT Lat: -12.79 Lon: 143.30 Height: 18.5 m
Data from the previous 72 hours. | See also: Recent months at Lockhart River
Date/Time
EST
Temp
°C
App
Temp
°C
Dew
Point
°C
Rel
Hum
%
Delta-T
°C
Wind Press
QNH
hPa
Press
MSL
hPa
Rain since
9am
mm
Dir  Spd
km/h
Gust
km/h
Spd
kts
Gust
kts
28/04:00pm 26.9 32.0 25.5 92 1.0 NNW 9 13 5 7 1001.4 1001.3 3.6
28/03:30pm 26.6 32.0 25.4 93 0.8 NNW 7 9 4 5 1001.5 1001.4 3.6
28/03:00pm 26.4 31.4 25.4 94 0.7 NNW 9 15 5 8 1001.7 1001.6 3.6
28/02:30pm 26.3 30.5 25.3 94 0.7 NW 13 19 7 10 1002.1 1002.0 3.6
28/02:13pm 26.4 30.0 25.0 92 1.0 NNW 15 22 8 12 1002.3 1002.2 3.2
28/02:00pm 26.5 29.1 24.9 91 1.1 NW 20 28 11 15 1002.3 1002.2 3.2
28/01:56pm 26.6 29.0 24.6 89 1.4 NW 20 28 11 15 1002.2 1002.1 3.0
28/01:30pm 28.8 33.6 26.8 89 1.4 WSW 15 22 8 12 1001.8 1001.7 2.0
28/01:00pm 29.9 31.9 24.5 73 3.8 WNW 22 32 12 17 1001.9 1001.8 1.8
28/12:30pm 32.2 34.0 24.8 65 5.2 WNW 24 32 13 17 1001.6 1001.5 1.8
28/12:00pm 31.4 35.4 26.2 74 3.7 NW 17 28 9 15 1002.5 1002.4 1.8
28/11:30am 30.6 35.2 25.9 76 3.3 NNW 13 17 7 9 1002.8 1002.7 1.8
28/11:00am 29.5 33.9 26.3 83 2.3 NW 15 20 8 11 1003.1 1003.0 1.6
28/10:35am 27.9 33.4 26.8 94 0.8 NNW 11 19 6 10 1003.6 1003.5 1.6
28/10:30am 27.4 33.1 26.5 95 0.6 NW 9 17 5 9 1003.8 1003.7 1.6
28/10:16am 27.3 31.0 25.1 88 1.5 NNW 15 24 8 13 1003.9 1003.8 1.2
28/10:00am 29.6 33.7 25.8 80 2.7 NW 15 20 8 11 1003.8 1003.7 0.0
28/09:30am 29.0 32.5 25.4 81 2.5 NW 17 26 9 14 1004.2 1004.1 0.0
28/09:00am 27.8 31.2 25.2 86 1.8 NW 17 24 9 13 1003.9 1003.8 11.0
28/08:30am 27.5 30.7 24.9 86 1.8 WNW 17 24 9 13 1003.8 1003.7 11.0
28/08:00am 26.8 30.1 24.5 87 1.6 NW 15 22 8 12 1003.9 1003.8 11.0
28/07:30am 26.3 29.2 24.5 90 1.2 NW 17 26 9 14 1003.7 1003.6 11.0
28/07:00am 25.9 28.8 24.5 92 1.0 NNW 17 20 9 11 1003.5 1003.4 11.0
28/06:30am 25.2 28.9 24.5 96 0.5 NW 13 17 7 9 1002.9 1002.8 11.0
28/06:00am 25.6 29.2 24.4 93 0.8 NW 13 15 7 8 1002.4 1002.3 11.0
28/05:30am 26.0 29.0 24.6 92 1.0 NW 17 22 9 12 1002.5 1002.4 11.0
28/05:18am 25.8 29.7 24.8 94 0.7 NNW 13 20 7 11 1002.6 1002.5 11.0
28/05:00am 25.7 30.1 25.0 96 0.5 NW 11 15 6 8 1002.7 1002.6 11.0
28/04:55am 25.8 29.7 24.9 95 0.6 NW 13 22 7 12 1002.6 1002.5 11.0
28/04:30am 25.5 29.9 25.0 97 0.3 NNW 11 15 6 8 1002.2 1002.1 11.0
28/04:00am 25.3 30.1 25.1 99 0.1 NNW 9 13 5 7 1002.3 1002.2 11.0
28/03:30am 24.9 30.2 24.9 100 0.0 NW 6 9 3 5 1002.7 1002.6 11.0
28/03:00am 24.9 30.0 24.9 100 0.0 NNW 7 13 4 7 1002.7 1002.6 11.0
28/02:30am 24.6 30.4 24.6 100 0.0 NE 2 6 1 3 1002.6 1002.5 11.0
28/02:00am 24.7 30.8 24.5 99 0.1 CALM 0 0 0 0 1002.9 1002.8 11.0
28/01:30am 25.0 31.5 25.0 100 0.0 CALM 0 0 0 0 1003.1 1003.0 11.0
28/01:00am 24.9 30.5 24.9 100 0.0 NW 4 7 2 4 1003.7 1003.6 11.0
28/12:44am 24.9 30.2 24.9 100 0.0 NW 6 7 3 4 1004.0 1003.9 11.0
28/12:30am 24.9 29.6 24.9 100 0.0 NW 9 11 5 6 1004.2 1004.1 11.0
28/12:29am 24.9 29.6 24.9 100 0.0 NW 9 11 5 6 1004.2 1004.1 11.0
28/12:00am 24.9 30.2 24.9 100 0.0 N 6 7 3 4 1004.2 1004.1 11.0
 
Date/Time
EST
Temp
°C
App
Temp
°C
Dew
Point
°C
Rel
Hum
%
Delta-T
°C
Wind Press
QNH
hPa
Press
MSL
hPa
Rain since
9am
mm
Dir  Spd
km/h
Gust
km/h
Spd
kts
Gust
kts
27/11:30pm 25.0 31.5 25.0 100 0.0 CALM 0 0 0 0 1004.4 1004.3 11.0
27/11:00pm 25.1 31.6 25.1 100 0.0 CALM 0 0 0 0 1005.0 1004.9 11.0
27/10:30pm 25.2 31.7 25.0 99 0.1 CALM 0 0 0 0 1005.3 1005.2 11.0
27/10:00pm 25.2 31.8 25.2 100 0.0 CALM 0 0 0 0 1005.1 1005.0 11.0
27/09:30pm 25.4 32.0 25.2 99 0.1 CALM 0 0 0 0 1004.8 1004.7 11.0
27/09:00pm 25.3 31.8 25.0 98 0.2 CALM 0 0 0 0 1004.2 1004.1 11.0
27/08:30pm 25.6 32.2 25.3 98 0.2 CALM 0 0 0 0 1004.0 1003.9 11.0
27/08:00pm 25.5 31.6 25.0 97 0.3 NE 2 7 1 4 1003.6 1003.5 11.0
27/07:30pm 25.7 31.0 25.0 96 0.5 ENE 6 7 3 4 1003.7 1003.6 11.0
27/07:00pm 25.7 31.0 25.0 96 0.5 NNW 6 7 3 4 1003.4 1003.3 10.8
27/06:30pm 25.8 30.9 24.9 95 0.6 N 7 9 4 5 1002.9 1002.8 10.8
27/06:00pm 26.1 31.2 24.7 92 1.0 NW 6 9 3 5 1002.7 1002.6 10.4
27/05:30pm 26.3 30.7 24.5 90 1.2 NW 9 11 5 6 1002.8 1002.7 10.4
27/05:00pm 26.2 30.1 24.2 89 1.4 NW 11 15 6 8 1002.6 1002.5 10.4
27/04:30pm 25.1 29.7 24.8 98 0.2 NW 9 11 5 6 1002.7 1002.6 10.4
27/04:20pm 24.7 29.1 24.4 98 0.2 NW 9 13 5 7 1002.6 1002.5 10.4
27/04:00pm 24.5 26.3 23.6 95 0.6 NNW 20 35 11 19 1003.0 1002.9 9.0
27/03:55pm 24.7 25.1 23.8 95 0.6 NNW 28 46 15 25 1003.1 1003.0 7.8
27/03:46pm 25.8 28.3 24.4 92 1.0 NNW 19 46 10 25 1002.9 1002.8 5.2
27/03:30pm 26.9 32.0 26.2 96 0.5 NNW 11 15 6 8 1002.7 1002.6 3.0
27/03:00pm 28.2 32.4 24.8 82 2.4 WNW 11 19 6 10 1002.5 1002.4 1.0
27/02:30pm 30.0 34.0 25.1 75 3.4 NNW 13 20 7 11 1002.5 1002.4 0.6
27/02:00pm 30.3 35.3 26.0 78 3.1 WNW 11 17 6 9 1002.6 1002.5 0.6
27/01:30pm 29.7 33.9 25.4 78 3.0 NW 13 19 7 10 1002.8 1002.7 0.6
27/01:00pm 29.3 34.1 25.7 81 2.6 WNW 11 15 6 8 1003.6 1003.5 0.6
27/12:30pm 28.9 34.2 26.5 87 1.7 NW 11 20 6 11 1004.2 1004.1 0.6
27/12:00pm 28.0 33.3 25.8 88 1.6 NNW 9 13 5 7 1004.7 1004.6 0.6
27/11:30am 27.4 32.7 25.8 91 1.1 WNW 9 11 5 6 1005.1 1005.0 0.6
27/11:00am 27.0 32.8 26.1 95 0.6 NNW 7 11 4 6 1005.4 1005.3 0.6
27/10:30am 26.8 31.9 25.6 93 0.8 NW 9 13 5 7 1005.2 1005.1 0.4
27/10:00am 27.3 30.8 24.9 87 1.7 NW 15 20 8 11 1005.5 1005.4 0.2
27/09:30am 28.1 32.9 25.7 87 1.7 NNW 11 13 6 7 1005.4 1005.3 0.0
27/09:00am 28.1 33.3 25.7 87 1.7 NNW 9 15 5 8 1005.2 1005.1 10.0
27/08:30am 27.9 32.5 25.3 86 1.8 NNW 11 19 6 10 1005.0 1004.9 10.0
27/08:00am 27.5 32.8 25.9 91 1.1 N 9 15 5 8 1004.6 1004.5 10.0
27/07:30am 26.6 32.7 25.7 95 0.6 ENE 4 9 2 5 1004.2 1004.1 10.0
27/07:00am 24.9 31.3 24.9 100 0.0 CALM 0 4 0 2 1004.0 1003.9 10.0
27/06:30am 24.3 29.6 24.3 100 0.0 N 4 9 2 5 1003.7 1003.6 10.0
27/06:00am 24.4 30.1 24.4 100 0.0 NE 2 6 1 3 1003.2 1003.1 10.0
27/05:30am 24.2 30.2 24.2 100 0.0 CALM 0 0 0 0 1003.1 1003.0 10.0
27/05:00am 24.3 30.3 24.3 100 0.0 CALM 0 0 0 0 1003.4 1003.3 10.0
27/04:30am 24.1 30.0 24.1 100 0.0 CALM 0 2 0 1 1002.9 1002.8 10.0
27/04:09am 24.2 30.2 24.2 100 0.0 CALM 0 0 0 0 1002.8 1002.7 10.0
27/04:00am 24.1 30.0 24.1 100 0.0 CALM 0 0 0 0 1002.8 1002.7 10.0
27/03:58am 24.1 30.0 24.1 100 0.0 CALM 0 0 0 0 1002.8 1002.7 10.0
27/03:49am 24.1 30.0 24.1 100 0.0 CALM 0 0 0 0 1002.9 1002.8 10.0
27/03:46am 24.1 30.0 24.1 100 0.0 CALM 0 0 0 0 1002.9 1002.8 10.0
27/03:30am 24.1 30.0 24.1 100 0.0 CALM 0 0 0 0 1002.9 1002.8 10.0
27/03:00am 24.1 29.2 24.1 100 0.0 NW 4 7 2 4 1003.0 1002.9 10.0
27/02:30am 24.3 30.3 24.3 100 0.0 CALM 0 0 0 0 1003.4 1003.3 10.0
27/02:00am 24.3 29.9 24.3 100 0.0 W 2 6 1 3 1003.8 1003.7 10.0
27/01:30am 24.4 30.5 24.4 100 0.0 CALM 0 0 0 0 1004.1 1004.0 10.0
27/01:00am 24.4 30.5 24.4 100 0.0 CALM 0 0 0 0 1004.3 1004.2 10.0
27/12:30am 24.6 30.7 24.4 99 0.1 CALM 0 0 0 0 1004.7 1004.6 10.0
27/12:00am 24.7 30.8 24.5 99 0.1 CALM 0 0 0 0 1004.9 1004.8 10.0
 
Date/Time
EST
Temp
°C
App
Temp
°C
Dew
Point
°C
Rel
Hum
%
Delta-T
°C
Wind Press
QNH
hPa
Press
MSL
hPa
Rain since
9am
mm
Dir  Spd
km/h
Gust
km/h
Spd
kts
Gust
kts
26/11:30pm 24.7 30.8 24.5 99 0.1 CALM 0 0 0 0 1005.1 1005.0 10.0
26/11:00pm 24.7 30.1 24.5 99 0.1 NE 4 9 2 5 1005.3 1005.2 10.0
26/10:30pm 24.6 30.6 24.3 98 0.2 CALM 0 0 0 0 1005.0 1004.9 10.0
26/10:00pm 24.7 30.7 24.2 97 0.3 CALM 0 0 0 0 1004.8 1004.7 10.0
26/09:30pm 24.8 30.4 24.3 97 0.3 N 2 6 1 3 1004.4 1004.3 10.0
26/09:00pm 25.3 30.2 24.3 94 0.7 NNE 6 7 3 4 1004.2 1004.1 10.0
26/08:30pm 25.4 30.2 24.2 93 0.8 N 6 11 3 6 1004.2 1004.1 10.0
26/08:00pm 25.5 29.3 24.1 92 1.0 NW 11 17 6 9 1003.9 1003.8 10.0
26/07:30pm 25.8 29.3 24.2 91 1.1 NW 13 17 7 9 1003.6 1003.5 10.0
26/07:00pm 25.7 29.8 24.5 93 0.8 NNW 11 15 6 8 1003.7 1003.6 10.0
26/06:30pm 25.8 30.2 24.4 92 1.0 NNW 9 15 5 8 1003.3 1003.2 10.0
26/06:00pm 25.7 29.8 24.5 93 0.8 NNW 11 17 6 9 1002.9 1002.8 10.0
26/05:30pm 25.6 30.0 24.4 93 0.8 NNW 9 13 5 7 1002.9 1002.8 10.0
26/05:01pm 25.5 29.3 24.1 92 1.0 NNW 11 15 6 8 1003.0 1002.9 10.0
26/05:00pm 25.6 29.6 24.4 93 0.8 NNW 11 15 6 8 1002.9 1002.8 10.0
26/04:43pm 25.6 29.9 24.2 92 1.0 NNW 9 13 5 7 1003.1 1003.0 10.0
26/04:30pm 25.5 29.4 24.3 93 0.8 NW 11 13 6 7 1003.0 1002.9 10.0
26/04:00pm 25.3 29.6 24.3 94 0.7 NW 9 13 5 7 1002.9 1002.8 10.0
26/03:30pm 24.9 26.8 23.7 93 0.8 NW 20 32 11 17 1002.8 1002.7 10.0
26/03:00pm 24.5 27.3 23.6 95 0.6 NNW 15 20 8 11 1003.0 1002.9 10.0
26/02:30pm 24.3 26.0 23.4 95 0.6 NW 20 26 11 14 1003.3 1003.2 9.8
26/02:03pm 24.6 27.0 23.6 94 0.7 NW 17 30 9 16 1003.6 1003.5 9.0
26/02:00pm 24.7 27.7 24.0 96 0.5 NW 15 20 8 11 1003.7 1003.6 9.0
26/01:39pm 24.9 28.1 24.4 97 0.3 NNW 15 20 8 11 1004.6 1004.5 6.0
26/01:30pm 25.1 28.0 24.4 96 0.5 NW 17 24 9 13 1004.4 1004.3 4.4
26/01:07pm 25.7 29.2 24.8 95 0.6 NNW 15 22 8 12 1004.4 1004.3 3.4
26/01:00pm 25.8 28.2 24.6 93 0.8 NW 20 30 11 16 1004.3 1004.2 3.0
26/12:49pm 26.5 29.0 24.7 90 1.3 WNW 20 32 11 17 1004.3 1004.2 2.2
26/12:30pm 27.8 32.0 25.4 87 1.7 NW 13 19 7 10 1004.1 1004.0 0.8
26/12:00pm 30.0 32.4 24.6 73 3.8 NW 20 26 11 14 1003.8 1003.7 0.2
26/11:30am 30.3 33.8 25.4 75 3.5 NNW 17 26 9 14 1004.4 1004.3 0.2
26/11:00am 29.8 33.7 25.5 78 3.0 NNW 15 26 8 14 1004.9 1004.8 0.2
26/10:30am 29.3 34.0 26.1 83 2.3 NNW 13 17 7 9 1005.4 1005.3 0.2
26/10:00am 29.0 33.0 25.6 82 2.4 NNW 15 24 8 13 1005.6 1005.5 0.2
26/09:30am 28.5 34.1 26.3 88 1.6 NNW 9 15 5 8 1005.8 1005.7 0.0
26/09:00am 27.7 33.4 25.9 90 1.3 NNW 7 11 4 6 1005.6 1005.5 1.2
26/08:30am 26.6 33.1 25.6 94 0.7 N 2 6 1 3 1005.5 1005.4 1.2
26/08:00am 25.9 32.4 25.6 98 0.2 SSE 2 7 1 4 1005.4 1005.3 1.2
26/07:30am 25.3 31.9 25.3 100 0.0 CALM 0 0 0 0 1005.7 1005.6 1.2
26/07:00am 25.0 31.5 25.0 100 0.0 CALM 0 0 0 0 1005.4 1005.3 1.2
26/06:30am 24.9 31.3 24.9 100 0.0 CALM 0 0 0 0 1004.7 1004.6 1.2
26/06:00am 24.9 30.8 24.7 99 0.1 SE 2 7 1 4 1004.4 1004.3 1.2
26/05:30am 24.9 30.2 24.9 100 0.0 SE 6 7 3 4 1004.2 1004.1 1.2
26/05:00am 24.9 30.0 24.9 100 0.0 SE 7 7 4 4 1003.9 1003.8 1.2
26/04:30am 24.9 31.3 24.9 100 0.0 CALM 0 0 0 0 1003.6 1003.5 1.2
26/04:00am 24.8 29.9 24.6 99 0.1 N 6 7 3 4 1003.8 1003.7 1.2
26/03:33am 24.8 31.1 24.8 100 0.0 CALM 0 0 0 0 1003.8 1003.7 1.2
26/03:30am 24.8 31.1 24.8 100 0.0 CALM 0 0 0 0 1003.8 1003.7 1.2
26/03:14am 24.8 31.0 24.6 99 0.1 CALM 0 0 0 0 1003.9 1003.8 1.2
26/03:00am 25.0 31.3 24.8 99 0.1 CALM 0 0 0 0 1004.2 1004.1 1.2
26/02:30am 24.9 31.2 24.7 99 0.1 CALM 0 0 0 0 1004.6 1004.5 1.2
26/02:00am 25.1 31.4 24.8 98 0.2 CALM 0 0 0 0 1004.7 1004.6 1.2
26/01:30am 25.1 31.1 24.8 98 0.2 NNW 2 7 1 4 1005.0 1004.9 1.2
26/01:00am 25.1 30.6 24.6 97 0.3 N 4 7 2 4 1005.4 1005.3 1.2
26/12:30am 25.3 29.4 24.6 96 0.5 NNW 11 15 6 8 1005.8 1005.7 1.2
26/12:00am 25.6 29.7 24.6 94 0.7 N 11 19 6 10 1006.1 1006.0 1.2
 
Date/Time
EST
Temp
°C
App
Temp
°C
Dew
Point
°C
Rel
Hum
%
Delta-T
°C
Wind Press
QNH
hPa
Press
MSL
hPa
Rain since
9am
mm
Dir  Spd
km/h
Gust
km/h
Spd
kts
Gust
kts
25/11:30pm 25.8 30.4 24.8 94 0.7 N 9 13 5 7 1006.3 1006.2 1.2
25/11:00pm 25.9 31.3 25.2 96 0.5 NNW 6 11 3 6 1007.0 1006.9 1.2
25/10:30pm 26.1 31.4 25.2 95 0.6 NNW 7 9 4 5 1007.1 1007.0 1.2
25/10:00pm 26.1 31.4 25.2 95 0.6 N 7 11 4 6 1006.7 1006.6 1.2
25/09:30pm 26.1 31.8 25.6 97 0.4 NNW 6 6 3 3 1006.3 1006.2 1.2
25/09:00pm 26.2 31.5 25.3 95 0.6 NNW 7 9 4 5 1005.7 1005.6 1.2
25/08:30pm 26.4 31.8 25.4 94 0.7 N 7 9 4 5 1005.6 1005.5 1.2
25/08:00pm 26.6 31.7 25.6 94 0.7 N 9 15 5 8 1005.4 1005.3 1.2
25/07:30pm 26.8 31.2 25.6 93 0.8 N 13 17 7 9 1005.2 1005.1 1.2
25/07:00pm 27.0 31.7 25.6 92 1.0 N 11 15 6 8 1004.9 1004.8 1.2
25/06:30pm 27.4 31.6 25.4 89 1.4 N 13 20 7 11 1004.9 1004.8 1.2
25/06:00pm 28.1 35.3 26.1 89 1.4 CALM 0 0 0 0 1004.6 1004.5 1.2
25/05:30pm 28.2 34.8 25.8 87 1.7 NNE 2 6 1 3 1004.3 1004.2 1.2
25/05:00pm 28.3 33.7 25.5 85 2.0 E 7 9 4 5 1004.1 1004.0 1.2
25/04:30pm 28.4 33.9 25.6 85 2.0 ENE 7 9 4 5 1003.9 1003.8 1.2

Other formats

Comma delimited format used in spreadsheet applications
http://www.bom.gov.au/fwo/IDQ60801/IDQ60801.94186.axf

JavaScript Object Notation format (JSON) in row-major order
http://www.bom.gov.au/fwo/IDQ60801/IDQ60801.94186.json

Data quality

Most of these data are generated automatically and are frequently updated. Quality checks on data are not normally performed. It is possible for incorrect values to appear. Refer to information at About Latest Weather Observations and please check the disclaimer before using these data.